Terminal Aerodrome Forecast
Issued by NWS Sioux Falls, SD

Home | Current Version | Previous Version | Text Only | Print | Product List | Glossary On
Versions: 1 2 3 4 5 6 7 8 9 10 11 12
000
FTUS43 KFSD 011120
TAFHON
TAF
KHON 011120Z 0112/0212 VRB04KT P6SM SKC
     FM011400 18007KT P6SM SCT120
     FM011800 22012G18KT P6SM SCT080
     FM020100 20007KT P6SM SKC
     FM021000 24005KT P6SM SKC=

USA.gov is the U.S. government's official web portal to all federal, state and local government web resources and services.